Time;durP1;ratioP1;P1;durP2;ratioP2;P2;SDS_P1;SDS_P2;PMS_P1;PMS_P2;Temp;Humidity;BMP_temperature;BMP_pressure;BME280_temperature;BME280_humidity;BME280_pressure;Samples;Min_cycle;Max_cycle;Signal;HPM_P1;HPM_P2
2022/08/13 00:00:59;;;;;;;3.47;3.17;;;;;;;18.83;50.43;66177.06;5136224;27;20180;-69
2022/08/13 00:03:28;;;;;;;3.57;3.57;;;;;;;18.70;50.89;66163.13;5136506;27;20638;-68
2022/08/13 00:06:40;;;;;;;3.50;3.50;;;;;;;18.64;50.88;66161.66;5135919;27;20213;-69
2022/08/13 00:09:04;;;;;;;3.57;3.57;;;;;;;18.52;51.33;66145.09;5136276;27;20188;-69
2022/08/13 00:14:33;;;;;;;4.03;3.73;;;;;;;18.48;51.45;66143.78;5135770;27;20224;-69
2022/08/13 00:17:04;;;;;;;3.53;3.40;;;;;;;18.42;51.53;66132.41;5135580;27;20207;-69
2022/08/13 00:19:35;;;;;;;4.13;4.10;;;;;;;18.38;51.45;66138.44;5136172;27;20200;-69
2022/08/13 00:22:02;;;;;;;3.97;3.80;;;;;;;18.32;52.04;66123.88;5136079;27;20210;-69
2022/08/13 00:24:48;;;;;;;3.90;3.90;;;;;;;18.29;52.02;66114.69;5135787;27;20622;-69
2022/08/13 00:27:22;;;;;;;3.40;3.40;;;;;;;18.30;52.03;66124.28;5135446;27;20184;-69
2022/08/13 00:29:56;;;;;;;3.40;3.40;;;;;;;18.32;51.83;66125.94;5135215;27;20187;-69
2022/08/13 00:32:28;;;;;;;4.00;3.73;;;;;;;18.28;52.04;66116.78;5135895;27;20173;-69
2022/08/13 00:34:55;;;;;;;4.07;3.80;;;;;;;18.28;52.10;66119.41;5135801;27;20250;-69
2022/08/13 00:37:25;;;;;;;3.53;3.53;;;;;;;18.25;52.15;66112.88;5135477;27;20276;-69
2022/08/13 00:39:55;;;;;;;3.60;3.60;;;;;;;18.19;52.34;66106.72;5135217;27;20183;-69
2022/08/13 00:42:42;;;;;;;5.30;3.50;;;;;;;18.24;52.43;66112.31;5135403;27;20172;-69
2022/08/13 00:45:17;;;;;;;3.93;3.83;;;;;;;18.22;52.50;66115.34;5135605;27;20208;-69
2022/08/13 00:50:34;;;;;;;3.33;3.33;;;;;;;18.11;52.66;66105.69;5135979;27;20527;-69
2022/08/13 00:53:04;;;;;;;4.03;3.90;;;;;;;18.02;53.18;66093.59;5134927;27;20173;-69
2022/08/13 00:55:31;;;;;;;3.37;3.37;;;;;;;17.98;53.42;66088.56;5134832;27;20204;-69
2022/08/13 00:57:58;;;;;;;3.80;3.70;;;;;;;17.86;53.85;66071.03;5134848;27;20215;-69
2022/08/13 01:00:27;;;;;;;3.80;3.60;;;;;;;17.81;54.04;66070.16;5134817;27;20234;-69
2022/08/13 01:02:54;;;;;;;3.60;3.60;;;;;;;17.81;53.83;66068.09;5134776;27;20184;-69
2022/08/13 01:05:24;;;;;;;3.63;3.63;;;;;;;17.81;53.74;66068.09;5134649;27;20631;-69
2022/08/13 01:07:58;;;;;;;3.57;3.47;;;;;;;17.86;53.54;66071.03;5135028;27;20575;-69
2022/08/13 01:10:25;;;;;;;3.70;3.60;;;;;;;17.85;54.04;66069.34;5134582;27;20235;-69
2022/08/13 01:12:54;;;;;;;6.43;4.00;;;;;;;17.80;53.88;66074.84;5135161;27;20191;-69
2022/08/13 01:15:23;;;;;;;4.57;4.00;;;;;;;17.75;54.20;66066.06;5134600;27;20570;-69
2022/08/13 01:17:53;;;;;;;3.30;3.20;;;;;;;17.72;54.69;66052.25;5134557;27;20184;-69
2022/08/13 01:20:27;;;;;;;4.10;3.97;;;;;;;17.60;55.13;66047.25;5134510;27;20255;-68
2022/08/13 01:23:04;;;;;;;3.97;3.63;;;;;;;17.56;54.89;66037.53;5134757;27;20623;-68
2022/08/13 01:25:32;;;;;;;4.37;4.27;;;;;;;17.49;54.99;66027.09;5134641;27;20631;-69
2022/08/13 01:28:22;;;;;;;5.40;3.80;;;;;;;17.50;54.93;66036.09;5134711;27;20180;-68
2022/08/13 01:30:52;;;;;;;5.03;3.67;;;;;;;17.49;55.13;66034.97;5134565;27;20236;-68
2022/08/13 01:33:20;;;;;;;4.10;4.00;;;;;;;17.51;54.86;66032.53;5134324;27;20223;-68
2022/08/13 01:35:48;;;;;;;3.60;3.50;;;;;;;17.42;55.25;66027.72;5134254;27;20208;-68
2022/08/13 01:38:21;;;;;;;3.93;3.83;;;;;;;17.42;55.13;66027.72;5134588;27;20187;-68
2022/08/13 01:40:48;;;;;;;3.97;3.67;;;;;;;17.49;55.21;66035.53;5133771;27;20164;-68
2022/08/13 01:43:19;;;;;;;4.30;3.80;;;;;;;17.36;55.61;66021.06;5134260;28;20211;-68
2022/08/13 01:45:51;;;;;;;3.47;3.47;;;;;;;17.35;55.53;66014.69;5134453;28;20575;-69
2022/08/13 01:51:34;;;;;;;4.30;4.00;;;;;;;17.21;56.10;66002.25;5134091;28;20192;-68
2022/08/13 01:54:11;;;;;;;3.70;3.43;;;;;;;17.25;55.88;66009.34;5134130;28;20176;-68
2022/08/13 01:57:00;;;;;;;4.30;4.20;;;;;;;17.22;55.96;66006.00;5134066;28;20208;-68
2022/08/13 01:59:29;;;;;;;3.87;3.77;;;;;;;17.26;55.93;66010.44;5134413;28;20699;-68
2022/08/13 02:02:16;;;;;;;4.57;4.00;;;;;;;17.18;56.40;66001.53;5134374;28;20508;-68
2022/08/13 02:05:05;;;;;;;4.43;3.40;;;;;;;17.17;56.37;66000.41;5134203;28;20638;-69
2022/08/13 02:07:38;;;;;;;4.20;3.90;;;;;;;17.19;56.29;65999.47;5134335;28;20213;-68
2022/08/13 02:10:24;;;;;;;3.73;3.73;;;;;;;17.19;56.34;65997.41;5133942;28;20203;-68
2022/08/13 02:12:51;;;;;;;3.97;3.87;;;;;;;17.10;56.72;65992.63;5133988;28;20209;-68
2022/08/13 02:15:18;;;;;;;4.00;3.80;;;;;;;17.10;57.01;65995.25;5134043;28;20235;-69
2022/08/13 02:18:04;;;;;;;3.90;3.70;;;;;;;17.03;57.23;65982.19;5134254;28;20183;-68
2022/08/13 02:20:34;;;;;;;3.93;3.80;;;;;;;17.02;57.27;65988.94;5133920;28;20180;-68
2022/08/13 02:23:05;;;;;;;3.60;3.60;;;;;;;17.01;57.23;65982.59;5134447;28;20177;-68
2022/08/13 02:25:34;;;;;;;4.43;4.17;;;;;;;16.89;57.75;65969.19;5134224;28;20219;-69
2022/08/13 02:28:01;;;;;;;3.47;3.47;;;;;;;16.81;58.26;65963.47;5133837;28;20222;-69
2022/08/13 02:30:29;;;;;;;4.20;4.10;;;;;;;16.81;58.27;65955.59;5133715;28;20283;-69
2022/08/13 02:32:58;;;;;;;4.53;3.80;;;;;;;16.77;58.23;65966.88;5134022;28;20193;-68
2022/08/13 02:35:26;;;;;;;3.60;3.50;;;;;;;16.81;58.18;65960.28;5133712;28;20626;-68
2022/08/13 02:38:13;;;;;;;3.90;3.70;;;;;;;16.80;58.18;65959.72;5133750;28;20586;-68
2022/08/13 02:43:29;;;;;;;8.63;3.73;;;;;;;16.70;58.57;65949.13;5133677;28;20205;-68
2022/08/13 02:46:00;;;;;;;3.93;3.63;;;;;;;16.71;58.55;65950.25;5133592;28;20548;-68
2022/08/13 02:48:29;;;;;;;3.67;3.63;;;;;;;16.74;58.56;65948.34;5133638;28;20562;-68
2022/08/13 02:50:57;;;;;;;3.83;3.50;;;;;;;16.70;59.10;65940.72;5133554;28;20204;-68
2022/08/13 02:53:25;;;;;;;3.97;3.97;;;;;;;16.51;59.93;65925.34;5135939;27;20203;-68
2022/08/13 02:55:59;;;;;;;3.83;3.70;;;;;;;16.36;60.80;65909.19;5137238;27;20208;-68
2022/08/13 02:58:26;;;;;;;3.93;3.90;;;;;;;16.37;60.59;65907.13;5137736;27;20203;-68
2022/08/13 03:00:53;;;;;;;10.23;4.27;;;;;;;16.31;60.75;65905.66;5137269;27;20207;-68
2022/08/13 03:03:21;;;;;;;4.27;4.27;;;;;;;16.33;60.85;65908.44;5137096;27;20196;-68
2022/08/13 03:05:49;;;;;;;5.10;3.80;;;;;;;16.37;60.81;65912.34;5137019;27;20296;-68
2022/08/13 03:08:27;;;;;;;3.63;3.63;;;;;;;16.33;61.04;65911.06;5137032;27;20176;-68
2022/08/13 03:11:08;;;;;;;4.43;3.67;;;;;;;16.29;61.10;65904.00;5137203;27;20196;-68
2022/08/13 03:13:37;;;;;;;5.27;4.13;;;;;;;16.20;61.47;65893.94;5137224;27;20177;-68
2022/08/13 03:16:15;;;;;;;6.13;4.33;;;;;;;16.21;61.51;65895.06;5136718;27;20254;-68
2022/08/13 03:18:46;;;;;;;5.37;4.77;;;;;;;16.21;61.65;65889.81;5137145;27;20177;-68
2022/08/13 03:21:22;;;;;;;4.67;4.30;;;;;;;16.18;61.45;65892.28;5136803;27;20172;-68
2022/08/13 03:24:12;;;;;;;4.40;4.13;;;;;;;16.14;61.73;65893.06;5137036;27;20530;-68
2022/08/13 03:26:50;;;;;;;5.93;3.90;;;;;;;16.18;62.01;65894.91;5136677;27;20253;-68
2022/08/13 03:29:20;;;;;;;4.30;3.97;;;;;;;16.17;62.17;65891.19;5136596;27;20189;-68
2022/08/13 03:31:56;;;;;;;4.23;4.00;;;;;;;16.24;62.10;65901.03;5136786;27;20193;-68
2022/08/13 03:34:22;;;;;;;8.33;3.87;;;;;;;16.22;61.84;65890.97;5136780;27;20220;-68
2022/08/13 03:36:53;;;;;;;4.30;4.20;;;;;;;16.18;62.01;65887.06;5136390;27;20210;-69
2022/08/13 03:39:23;;;;;;;3.90;3.80;;;;;;;16.13;62.29;65889.34;5136469;27;20173;-69
2022/08/13 03:41:51;;;;;;;4.23;4.00;;;;;;;16.05;62.80;65883.03;5136366;27;20184;-69
2022/08/13 03:44:18;;;;;;;4.00;3.80;;;;;;;15.99;63.33;65865.88;5136334;27;20612;-69
2022/08/13 03:46:54;;;;;;;4.43;4.13;;;;;;;15.96;63.41;65863.09;5136227;27;20261;-69
2022/08/13 03:49:20;;;;;;;4.43;4.23;;;;;;;15.93;63.84;65859.19;5137064;27;20589;-69
2022/08/13 03:51:50;;;;;;;4.77;4.57;;;;;;;15.86;63.90;65849.34;5136672;27;20279;-69
2022/08/13 03:54:17;;;;;;;4.37;4.27;;;;;;;15.74;64.55;65836.00;5136117;27;20181;-69
2022/08/13 03:56:52;;;;;;;4.23;4.23;;;;;;;15.53;65.42;65817.81;5136058;27;20737;-69
2022/08/13 03:59:28;;;;;;;4.10;3.80;;;;;;;15.40;65.93;65806.50;5136613;27;20172;-69
2022/08/13 04:02:15;;;;;;;4.93;4.37;;;;;;;15.28;66.61;65793.16;5136558;27;20173;-69
2022/08/13 04:04:47;;;;;;;9.50;4.33;;;;;;;15.33;66.56;65796.09;5135501;27;20582;-69
2022/08/13 04:07:18;;;;;;;4.33;4.23;;;;;;;15.28;66.88;65793.72;5136082;27;20676;-69
2022/08/13 04:09:46;;;;;;;4.13;4.03;;;;;;;15.23;67.40;65792.84;5136053;27;20188;-69
2022/08/13 04:12:21;;;;;;;5.00;3.90;;;;;;;15.17;68.16;65773.06;5136005;27;20654;-69
2022/08/13 04:14:47;;;;;;;3.87;3.87;;;;;;;15.10;68.13;65784.69;5135615;27;20216;-69
2022/08/13 04:17:24;;;;;;;5.03;4.57;;;;;;;15.16;68.03;65782.41;5135932;27;20255;-69
2022/08/13 04:19:52;;;;;;;5.07;4.77;;;;;;;15.14;67.81;65776.09;5135589;27;20670;-69
2022/08/13 04:22:20;;;;;;;4.87;4.47;;;;;;;15.09;68.03;65767.34;5135820;27;20184;-69
2022/08/13 04:24:49;;;;;;;4.70;4.40;;;;;;;15.05;68.17;65771.28;5135523;27;20223;-68
2022/08/13 04:27:15;;;;;;;5.10;5.00;;;;;;;15.05;68.21;65766.06;5135965;27;20249;-68
2022/08/13 04:29:43;;;;;;;4.97;4.77;;;;;;;15.05;68.33;65762.88;5135936;27;20271;-68
2022/08/13 04:32:15;;;;;;;4.27;4.13;;;;;;;15.03;68.44;65768.50;5135583;27;20231;-68
2022/08/13 04:34:52;;;;;;;4.90;4.60;;;;;;;15.02;68.49;65759.56;5135805;27;20177;-69
2022/08/13 04:37:26;;;;;;;5.23;5.13;;;;;;;15.07;68.43;65765.09;5135840;27;20611;-68
2022/08/13 04:40:13;;;;;;;4.30;4.30;;;;;;;15.06;68.58;65777.63;5135577;27;20530;-68
2022/08/13 04:42:56;;;;;;;4.90;4.70;;;;;;;15.02;68.93;65764.78;5135729;27;20176;-68
2022/08/13 04:45:25;;;;;;;4.53;4.40;;;;;;;14.99;69.17;65761.97;5135039;27;20235;-68
2022/08/13 04:47:58;;;;;;;4.80;4.40;;;;;;;15.10;68.56;65776.84;5135116;27;20181;-68
2022/08/13 04:50:26;;;;;;;3.97;3.87;;;;;;;15.12;68.61;65771.22;5135009;27;20180;-68
2022/08/13 04:52:55;;;;;;;3.73;3.73;;;;;;;15.16;68.37;65774.56;5135427;27;20253;-68
2022/08/13 04:55:22;;;;;;;4.43;4.10;;;;;;;15.14;68.78;65773.47;5134834;27;20204;-69
2022/08/13 04:57:49;;;;;;;3.97;3.93;;;;;;;15.20;68.46;65784.81;5135140;27;20187;-68
2022/08/13 05:00:32;;;;;;;4.30;4.30;;;;;;;15.30;68.16;65801.19;5134836;27;20192;-68
2022/08/13 05:03:14;;;;;;;3.40;3.40;;;;;;;;;;5135405;27;20217;-68
2022/08/13 05:05:46;;;;;;;4.57;4.20;;;;;;;15.46;68.31;65817.88;5134969;27;20617;-68
2022/08/13 05:08:16;;;;;;;4.23;4.00;;;;;;;15.53;68.10;65823.59;5134752;27;20255;-68
2022/08/13 05:10:46;;;;;;;3.97;3.97;;;;;;;15.58;67.88;65823.41;5134877;27;20218;-68
2022/08/13 05:13:24;;;;;;;4.90;4.57;;;;;;;15.66;67.84;65840.72;5134910;27;20504;-68
2022/08/13 05:15:54;;;;;;;3.93;3.73;;;;;;;15.76;67.45;65840.28;5133754;27;20207;-69
2022/08/13 05:18:28;;;;;;;4.10;4.00;;;;;;;15.87;67.31;65852.53;5135119;27;20524;-69
2022/08/13 05:20:57;;;;;;;4.30;4.20;;;;;;;16.01;67.12;65870.75;5134730;27;20181;-69
2022/08/13 05:23:24;;;;;;;4.40;4.20;;;;;;;16.10;67.29;65878.13;5134701;27;20606;-68
2022/08/13 05:26:11;;;;;;;4.13;4.13;;;;;;;16.19;66.52;65892.84;5134419;27;20211;-69
2022/08/13 05:29:04;;;;;;;4.43;4.23;;;;;;;16.24;67.02;65901.03;5134977;27;20176;-69
2022/08/13 05:31:35;;;;;;;4.17;4.07;;;;;;;16.35;66.96;65904.88;5134613;27;20193;-69
2022/08/13 05:34:24;;;;;;;4.50;4.10;;;;;;;16.40;66.81;65911.00;5134910;27;20218;-69
2022/08/13 05:36:52;;;;;;;4.63;4.63;;;;;;;16.54;66.78;65926.03;5134241;27;20209;-69
2022/08/13 05:39:40;;;;;;;4.43;4.37;;;;;;;16.58;66.66;65941.00;5134876;28;20177;-68
2022/08/13 05:42:13;;;;;;;4.20;4.03;;;;;;;16.67;66.21;65943.16;5134786;28;20183;-68
2022/08/13 05:44:41;;;;;;;5.00;4.70;;;;;;;16.88;65.21;65963.41;5134250;28;20188;-68
2022/08/13 05:47:08;;;;;;;4.40;4.10;;;;;;;16.95;65.29;65975.91;5134090;28;20204;-69
2022/08/13 05:49:35;;;;;;;4.97;4.63;;;;;;;16.94;65.59;65974.78;5134176;28;20215;-69
2022/08/13 05:52:24;;;;;;;4.30;4.23;;;;;;;16.98;65.59;65973.97;5134673;28;20189;-69
2022/08/13 05:55:06;;;;;;;5.53;4.90;;;;;;;17.04;65.99;65980.69;5134067;28;20188;-69
2022/08/13 05:57:53;;;;;;;5.27;4.83;;;;;;;17.17;65.42;65999.88;5134727;28;20173;-69
2022/08/13 06:03:24;;;;;;;5.47;4.97;;;;;;;17.34;64.25;66016.75;5134067;28;20164;-68
2022/08/13 06:06:14;;;;;;;12.63;4.87;;;;;;;17.51;64.09;66037.78;5133981;28;20214;-69
2022/08/13 06:08:49;;;;;;;5.03;4.50;;;;;;;17.72;63.83;66052.25;5134022;28;20181;-68
2022/08/13 06:11:17;;;;;;;4.90;4.50;;;;;;;17.76;63.61;66059.88;5133909;28;20227;-68
2022/08/13 06:14:04;;;;;;;4.83;4.20;;;;;;;17.82;62.67;66066.56;5134313;28;20181;-68
2022/08/13 06:16:33;;;;;;;4.93;4.83;;;;;;;17.98;62.59;66081.22;5134181;28;20208;-69
2022/08/13 06:19:22;;;;;;;6.00;4.07;;;;;;;18.09;63.27;66095.59;5134196;28;20169;-68
2022/08/13 06:21:57;;;;;;;4.67;4.27;;;;;;;18.23;62.31;66113.84;5133885;28;20177;-68
2022/08/13 06:24:27;;;;;;;4.40;4.20;;;;;;;18.39;62.10;66133.75;5134078;28;20185;-68
2022/08/13 06:26:53;;;;;;;11.30;5.00;;;;;;;18.51;61.34;66141.91;5135415;27;20196;-68
2022/08/13 06:29:20;;;;;;;6.63;4.50;;;;;;;18.68;59.86;66160.34;5137757;27;20219;-68
2022/08/13 06:31:48;;;;;;;5.40;4.53;;;;;;;18.78;59.27;66171.47;5137906;27;20791;-68
2022/08/13 06:34:15;;;;;;;5.43;4.80;;;;;;;18.89;59.14;66189.03;5138191;27;20515;-68
2022/08/13 06:37:03;;;;;;;6.33;4.00;;;;;;;19.00;59.72;66195.50;5138165;27;20561;-68
2022/08/13 06:39:31;;;;;;;3.90;3.90;;;;;;;19.15;59.22;66209.06;5137865;27;20189;-68
2022/08/13 06:42:02;;;;;;;7.10;4.30;;;;;;;19.25;58.27;66220.22;5137786;27;20233;-68
2022/08/13 06:44:31;;;;;;;4.07;4.07;;;;;;;19.34;57.81;66229.72;5137797;27;20264;-68
2022/08/13 06:47:03;;;;;;;4.97;4.67;;;;;;;19.49;58.40;66251.75;5137425;27;20251;-68
2022/08/13 06:49:31;;;;;;;11.70;4.33;;;;;;;19.66;57.23;66265.50;5137979;27;20204;-68
2022/08/13 06:52:18;;;;;;;4.77;4.47;;;;;;;;;;5137586;27;20203;-68
2022/08/13 06:54:45;;;;;;;4.10;3.87;;;;;;;19.92;56.01;66299.25;5137296;27;20185;-68
2022/08/13 06:57:19;;;;;;;4.07;3.80;;;;;;;20.05;55.96;66313.78;5137173;27;20715;-68
2022/08/13 06:59:54;;;;;;;4.60;4.30;;;;;;;20.25;55.68;66330.31;5137458;27;20272;-68
2022/08/13 07:02:42;;;;;;;5.00;4.50;;;;;;;20.37;54.12;66345.81;5137590;27;20179;-68
2022/08/13 07:05:10;;;;;;;9.73;4.03;;;;;;;20.45;54.50;66356.84;5137345;27;20264;-69
2022/08/13 07:07:48;;;;;;;5.00;4.53;;;;;;;;;;5137036;27;20183;-69
2022/08/13 07:10:14;;;;;;;5.13;4.57;;;;;;;20.77;53.59;66389.44;5136946;27;20219;-68
2022/08/13 07:12:42;;;;;;;7.40;5.20;;;;;;;20.91;52.86;66401.88;5136853;27;20201;-68
2022/08/13 07:15:16;;;;;;;7.50;5.80;;;;;;;20.99;52.18;66416.09;5136935;27;20219;-69
2022/08/13 07:18:04;;;;;;;10.47;3.67;;;;;;;21.10;52.32;66431.63;5137412;27;20169;-68
2022/08/13 07:20:31;;;;;;;4.10;4.07;;;;;;;;;;5136781;27;20607;-68
2022/08/13 07:22:58;;;;;;;4.83;4.37;;;;;;;21.27;51.10;66441.59;5136730;27;20225;-68
2022/08/13 07:25:45;;;;;;;4.10;4.00;;;;;;;21.38;50.78;66454.50;5136907;27;20303;-69
2022/08/13 07:28:25;;;;;;;5.13;4.43;;;;;;;21.53;51.33;66472.78;5137196;27;20180;-69
2022/08/13 07:31:14;;;;;;;4.33;4.03;;;;;;;21.72;49.42;66491.44;5136875;27;20268;-68
2022/08/13 07:33:51;;;;;;;3.97;3.77;;;;;;;21.80;48.66;66502.47;5136356;27;20217;-68
2022/08/13 07:36:27;;;;;;;3.80;3.80;;;;;;;21.82;49.14;66505.25;5136704;27;20228;-69
2022/08/13 07:38:54;;;;;;;3.93;3.83;;;;;;;21.94;48.80;66516.03;5135910;27;20176;-68
2022/08/13 07:41:21;;;;;;;4.63;3.77;;;;;;;22.09;48.48;66534.94;5136525;27;20212;-68
2022/08/13 07:43:48;;;;;;;3.87;3.57;;;;;;;22.19;48.78;66548.22;5136596;27;20184;-68
2022/08/13 07:46:35;;;;;;;4.40;4.07;;;;;;;22.31;47.84;66559.00;5136420;27;20577;-69
2022/08/13 07:49:08;;;;;;;3.70;3.57;;;;;;;;;;5136545;27;20633;-69
2022/08/13 07:51:37;;;;;;;3.90;3.80;;;;;;;22.50;48.00;66577.06;5136063;27;20185;-68
2022/08/13 07:54:06;;;;;;;3.80;3.50;;;;;;;22.59;46.82;66586.59;5136143;27;20199;-68
2022/08/13 07:56:35;;;;;;;5.20;4.20;;;;;;;22.76;47.49;66614.13;5136337;27;20239;-69
2022/08/13 07:59:03;;;;;;;3.60;3.60;;;;;;;;;;5136015;27;20184;-69
2022/08/13 08:01:31;;;;;;;4.50;4.40;;;;;;;;;;5135961;27;20662;-69
2022/08/13 08:04:19;;;;;;;3.87;3.67;;;;;;;23.04;46.22;66639.69;5135859;27;20196;-69
2022/08/13 08:06:57;;;;;;;3.50;3.50;;;;;;;23.02;46.37;66634.78;5135800;27;20212;-70
2022/08/13 08:09:31;;;;;;;6.03;3.13;;;;;;;23.08;45.74;66653.66;5136077;27;20195;-69
2022/08/13 08:14:54;;;;;;;3.93;3.60;;;;;;;23.24;45.03;66664.19;5135733;27;20192;-70
2022/08/13 08:17:26;;;;;;;3.37;3.20;;;;;;;23.34;44.27;66669.53;5135900;27;20180;-70
2022/08/13 08:20:21;;;;;;;6.57;3.53;;;;;;;23.44;45.23;66683.38;5135533;27;20220;-69
2022/08/13 08:23:03;;;;;;;3.50;3.27;;;;;;;;;;5135868;27;20633;-69
2022/08/13 08:25:30;;;;;;;3.27;3.27;;;;;;;23.69;43.82;66702.91;5135961;27;20205;-70
2022/08/13 08:28:11;;;;;;;3.30;3.03;;;;;;;23.82;42.50;66728.09;5135767;27;20201;-69
2022/08/13 08:30:59;;;;;;;8.60;3.40;;;;;;;23.99;43.11;66741.28;5135970;27;20260;-69
2022/08/13 08:33:47;;;;;;;3.10;3.00;;;;;;;24.12;42.58;66755.88;5135564;27;20220;-69
2022/08/13 08:36:23;;;;;;;3.13;3.13;;;;;;;24.21;41.50;66768.03;5135827;27;20204;-70
2022/08/13 08:44:40;;;;;;;3.17;2.53;;;;;;;;;;5135174;27;20204;-70
2022/08/13 08:47:07;;;;;;;3.28;3.22;;;;;;;24.60;38.54;66808.03;5134984;27;20204;-70
2022/08/13 08:49:35;;;;;;;2.33;2.33;;;;;;;24.68;39.16;66819.69;5134912;27;20184;-70
2022/08/13 08:52:11;;;;;;;2.65;2.65;;;;;;;24.82;38.64;66832.72;5135239;27;20248;-69
2022/08/13 08:54:45;;;;;;;3.90;2.58;;;;;;;24.85;37.98;66838.75;5135266;27;20173;-69
2022/08/13 08:57:18;;;;;;;4.38;2.65;;;;;;;24.89;38.41;66843.25;5134881;27;20271;-69
2022/08/13 08:59:48;;;;;;;5.97;3.38;;;;;;;24.94;37.55;66848.28;5135179;27;20191;-69
2022/08/13 09:02:19;;;;;;;2.53;2.53;;;;;;;;;;5135450;27;20169;-70
2022/08/13 09:04:53;;;;;;;2.85;2.75;;;;;;;25.12;37.67;66865.28;5135306;27;20193;-70
2022/08/13 09:07:26;;;;;;;2.55;2.55;;;;;;;25.18;37.57;66875.25;5134769;27;20207;-70
2022/08/13 09:09:58;;;;;;;2.60;2.60;;;;;;;;;;5135166;27;20207;-69
2022/08/13 09:12:26;;;;;;;2.90;2.90;;;;;;;25.32;36.36;66889.84;5134522;27;20222;-70
2022/08/13 09:14:56;;;;;;;2.50;2.50;;;;;;;25.25;37.48;66880.44;5134297;27;20275;-71
2022/08/13 09:17:24;;;;;;;9.32;2.88;;;;;;;25.37;37.35;66895.44;5134601;27;20218;-70
2022/08/13 09:20:13;;;;;;;3.00;2.83;;;;;;;25.40;37.04;66899.38;5134810;27;20176;-70
2022/08/13 09:22:44;;;;;;;4.13;2.97;;;;;;;25.40;37.20;66890.84;5134727;27;20161;-70
2022/08/13 09:25:22;;;;;;;2.50;2.50;;;;;;;25.37;36.53;66896.00;5134966;27;20212;-70
2022/08/13 09:27:51;;;;;;;10.15;2.75;;;;;;;25.49;36.00;66906.81;5134420;27;20188;-70
2022/08/13 09:30:39;;;;;;;5.68;2.17;;;;;;;;;;5134720;27;20599;-69
2022/08/13 09:33:12;;;;;;;2.60;2.47;;;;;;;25.71;36.27;66930.38;5134316;27;20188;-70
2022/08/13 09:35:40;;;;;;;4.10;2.78;;;;;;;25.85;35.12;66946.13;5134887;27;20204;-70
2022/08/13 09:38:10;;;;;;;2.55;2.55;;;;;;;;;;5134630;27;20169;-70
2022/08/13 09:40:55;;;;;;;2.85;2.75;;;;;;;26.05;35.28;66971.25;5134347;28;20650;-70
2022/08/13 09:43:40;;;;;;;2.83;2.83;;;;;;;26.05;34.98;66968.03;5134901;28;20169;-71
2022/08/13 09:46:15;;;;;;;2.80;2.70;;;;;;;26.15;34.42;66978.69;5134721;28;20204;-70
2022/08/13 09:48:45;;;;;;;3.78;2.70;;;;;;;26.09;34.35;66974.63;5134237;28;20164;-70
2022/08/13 09:51:14;;;;;;;3.40;2.15;;;;;;;25.99;34.95;66961.84;5134459;28;20184;-71
2022/08/13 09:54:03;;;;;;;2.60;2.60;;;;;;;25.90;34.59;66954.41;5134423;28;20220;-70
2022/08/13 09:56:36;;;;;;;2.28;2.28;;;;;;;;;;5126040;28;20208;-72
2022/08/13 09:59:08;;;;;;;2.90;2.90;;;;;;;26.21;35.15;66986.00;5123505;28;20251;-71
2022/08/13 10:01:41;;;;;;;2.17;2.17;;;;;;;;;;5130983;27;20180;-70
2022/08/13 10:04:22;;;;;;;8.65;2.40;;;;;;;26.17;33.74;66980.97;5131443;27;20208;-71
2022/08/13 10:06:49;;;;;;;4.47;3.35;;;;;;;;;;5127664;27;20242;-70
2022/08/13 10:09:27;;;;;;;2.25;2.25;;;;;;;26.12;34.16;66978.56;5132751;27;20596;-71
2022/08/13 10:11:58;;;;;;;2.92;2.65;;;;;;;26.08;34.48;66973.50;5128986;27;20188;-70
2022/08/13 10:14:45;;;;;;;2.47;2.47;;;;;;;25.93;33.83;66957.78;5135228;27;20627;-70
2022/08/13 10:17:23;;;;;;;2.47;2.47;;;;;;;26.02;33.70;66965.22;5134732;27;20650;-70
2022/08/13 10:20:03;;;;;;;12.35;2.78;;;;;;;26.10;34.02;66973.09;5135001;27;20196;-70
2022/08/13 10:22:29;;;;;;;2.85;2.67;;;;;;;26.29;34.50;66994.41;5137711;27;20534;-70
2022/08/13 10:24:57;;;;;;;2.83;2.83;;;;;;;26.40;34.48;67006.81;5134838;27;20188;-71
2022/08/13 10:27:25;;;;;;;2.65;2.65;;;;;;;26.42;33.72;67013.81;5135770;27;20201;-70
2022/08/13 10:30:12;;;;;;;2.67;2.67;;;;;;;26.28;32.53;66993.84;5128602;27;20268;-70
2022/08/13 10:32:58;;;;;;;3.20;2.92;;;;;;;;;;5132646;27;20228;-69
2022/08/13 10:35:29;;;;;;;2.70;2.65;;;;;;;26.24;33.73;66989.38;5134903;27;20697;-70
2022/08/13 10:37:59;;;;;;;2.65;2.65;;;;;;;26.32;33.38;67001.03;5136296;27;20589;-70
2022/08/13 10:40:32;;;;;;;2.72;2.72;;;;;;;;;;5132007;27;20188;-70
2022/08/13 10:43:05;;;;;;;5.38;2.67;;;;;;;;;;5134553;27;20189;-71
2022/08/13 10:45:32;;;;;;;3.72;3.42;;;;;;;26.76;32.20;67048.78;5117554;27;20237;-71
2022/08/13 10:48:00;;;;;;;3.00;3.00;;;;;;;;;;5135335;27;20212;-70
2022/08/13 10:50:30;;;;;;;3.38;3.17;;;;;;;26.91;31.31;67065.09;5137290;27;20222;-70
2022/08/13 10:52:58;;;;;;;2.53;2.53;;;;;;;26.78;31.42;67048.94;5133784;27;20201;-72
2022/08/13 10:55:25;;;;;;;2.50;2.50;;;;;;;26.68;31.73;67037.16;5129697;27;20220;-70
2022/08/13 10:57:52;;;;;;;3.08;2.80;;;;;;;26.54;32.54;67022.53;5133153;27;20264;-71
2022/08/13 11:00:31;;;;;;;3.08;2.85;;;;;;;26.55;32.41;67026.31;5117661;27;20677;-70
2022/08/13 11:02:57;;;;;;;3.25;3.22;;;;;;;26.58;33.08;67029.16;5135496;27;20249;-71
2022/08/13 11:05:25;;;;;;;3.08;2.85;;;;;;;26.58;33.38;67026.47;5136499;27;20212;-69
2022/08/13 11:07:56;;;;;;;2.63;2.58;;;;;;;26.67;33.44;67041.91;5135921;27;20237;-71
2022/08/13 11:10:24;;;;;;;2.22;2.22;;;;;;;26.85;32.66;67058.91;5135920;27;20216;-70
2022/08/13 11:12:58;;;;;;;2.58;2.58;;;;;;;;;;5134744;27;20278;-71
2022/08/13 11:15:41;;;;;;;5.68;3.30;;;;;;;;;;5135869;27;20249;-70
2022/08/13 11:18:13;;;;;;;2.67;2.67;;;;;;;26.88;31.79;67060.19;5132288;27;20198;-70
2022/08/13 11:23:25;;;;;;;2.83;2.67;;;;;;;;;;5137321;27;20225;-70
2022/08/13 11:25:51;;;;;;;2.90;2.90;;;;;;;;;;5132612;27;20295;-71
2022/08/13 11:28:38;;;;;;;7.38;2.97;;;;;;;27.10;31.71;67084.38;5135801;27;20621;-70
2022/08/13 11:31:04;;;;;;;3.25;3.05;;;;;;;;;;5135603;27;20192;-71
2022/08/13 11:33:31;;;;;;;5.15;3.30;;;;;;;;;;5128578;27;20558;-72
2022/08/13 11:36:17;;;;;;;6.40;3.17;;;;;;;27.13;31.27;67089.84;5131981;27;20303;-70
2022/08/13 11:38:44;;;;;;;5.35;3.15;;;;;;;27.14;31.52;67091.53;5136522;27;20189;-70
2022/08/13 11:41:12;;;;;;;2.97;2.78;;;;;;;;;;5135914;27;20233;-70
2022/08/13 11:43:45;;;;;;;3.22;3.13;;;;;;;27.23;31.05;67100.53;5134286;27;20181;-70
2022/08/13 11:46:24;;;;;;;2.85;2.80;;;;;;;27.14;30.71;67091.53;5135619;27;20333;-70
2022/08/13 11:48:51;;;;;;;2.60;2.60;;;;;;;27.19;29.83;67088.03;5116459;27;20658;-70
2022/08/13 11:51:34;;;;;;;6.32;3.00;;;;;;;27.21;29.66;67098.81;5135742;27;20598;-70
2022/08/13 11:54:19;;;;;;;2.72;2.70;;;;;;;27.17;29.23;67091.13;5135213;27;20215;-72
2022/08/13 11:56:59;;;;;;;3.60;3.05;;;;;;;27.11;29.53;67093.50;5130361;27;20216;-71
2022/08/13 11:59:25;;;;;;;5.60;2.47;;;;;;;;;;5133768;27;20249;-70
2022/08/13 12:02:11;;;;;;;2.53;2.53;;;;;;;27.21;29.47;67098.81;5130668;27;20326;-72
2022/08/13 12:04:43;;;;;;;3.08;2.88;;;;;;;27.21;30.01;67095.59;5135877;27;20180;-70
2022/08/13 12:07:15;;;;;;;2.97;2.78;;;;;;;27.24;31.01;67099.53;5135861;27;20621;-70
2022/08/13 12:09:42;;;;;;;2.65;2.65;;;;;;;27.34;31.38;67110.22;5132388;27;20245;-71
2022/08/13 12:12:14;;;;;;;3.13;3.13;;;;;;;27.39;31.41;67118.50;5135599;27;20307;-71
2022/08/13 12:14:48;;;;;;;4.90;3.25;;;;;;;;;;5134254;27;20695;-70
2022/08/13 12:17:15;;;;;;;4.00;3.00;;;;;;;27.42;32.25;67121.88;5135556;27;20204;-69
2022/08/13 12:20:02;;;;;;;3.50;3.50;;;;;;;27.38;31.96;67114.72;5135430;27;20200;-70
2022/08/13 12:22:44;;;;;;;3.85;3.47;;;;;;;27.40;31.67;67119.63;5136082;27;20176;-70
2022/08/13 12:25:12;;;;;;;3.25;3.25;;;;;;;27.29;31.89;67105.16;5135035;27;20246;-70
2022/08/13 12:28:08;;;;;;;11.38;3.08;;;;;;;27.31;31.46;67101.53;5135510;27;20208;-71
2022/08/13 12:30:35;;;;;;;3.35;3.35;;;;;;;27.33;31.93;67111.75;5135563;27;20185;-69
2022/08/13 12:33:03;;;;;;;6.03;3.45;;;;;;;27.37;31.76;67113.59;5135208;27;20239;-70
2022/08/13 12:35:41;;;;;;;5.88;2.83;;;;;;;27.51;31.95;67129.34;5135720;27;20212;-70
2022/08/13 12:38:24;;;;;;;3.20;3.10;;;;;;;27.47;31.16;67127.50;5135720;27;20257;-71
2022/08/13 12:40:57;;;;;;;3.22;3.03;;;;;;;27.48;30.96;67130.72;5116861;27;20179;-71
2022/08/13 12:43:39;;;;;;;3.30;3.08;;;;;;;;;;5135225;27;20247;-70
2022/08/13 12:46:26;;;;;;;3.42;3.10;;;;;;;27.55;32.31;67136.50;5135790;27;20232;-71